Time;durP1;ratioP1;P1;durP2;ratioP2;P2;SDS_P1;SDS_P2;PMS_P1;PMS_P2;Temp;Humidity;BMP_temperature;BMP_pressure;BME280_temperature;BME280_humidity;BME280_pressure;Samples;Min_cycle;Max_cycle;Signal;HPM_P1;HPM_P2
2022/11/24 00:01:03;;;;;;;10.70;7.00;;;;;;;;;;5047636;28;20133;-67
2022/11/24 00:03:29;;;;;;;11.20;6.90;;;;;;;;;;5050251;28;20050;-67
2022/11/24 00:05:54;;;;;;;14.30;7.33;;;;;;;;;;5048520;28;20572;-66
2022/11/24 00:08:20;;;;;;;13.27;7.00;;;;;;;;;;5066031;28;20060;-67
2022/11/24 00:10:45;;;;;;;11.73;6.60;;;;;;;;;;5047289;28;20041;-67
2022/11/24 00:13:11;;;;;;;10.97;6.40;;;;;;;;;;5046946;28;20051;-67
2022/11/24 00:15:37;;;;;;;10.53;6.33;;;;;;;;;;5066451;28;20024;-67
2022/11/24 00:18:03;;;;;;;10.77;6.70;;;;;;;;;;5065817;28;20436;-67
2022/11/24 00:20:28;;;;;;;14.80;6.53;;;;;;;;;;5047916;28;20056;-67
2022/11/24 00:22:54;;;;;;;11.10;6.30;;;;;;;;;;5047945;28;20035;-67
2022/11/24 00:25:20;;;;;;;13.27;6.37;;;;;;;;;;5066048;28;20525;-67
2022/11/24 00:27:46;;;;;;;9.97;5.93;;;;;;;;;;5047479;28;20032;-67
2022/11/24 00:30:11;;;;;;;9.67;6.70;;;;;;;;;;5048138;28;20035;-67
2022/11/24 00:32:37;;;;;;;10.27;6.70;;;;;;;;;;5068873;28;20043;-68
2022/11/24 00:35:03;;;;;;;14.73;6.90;;;;;;;;;;5075997;28;20043;-69
2022/11/24 00:37:28;;;;;;;11.83;6.53;;;;;;;;;;5059467;28;20055;-66
2022/11/24 00:39:54;;;;;;;10.73;6.60;;;;;;;;;;5070399;28;20531;-66
2022/11/24 00:42:20;;;;;;;12.07;7.17;;;;;;;;;;5055493;28;20370;-66
2022/11/24 00:44:45;;;;;;;13.40;7.13;;;;;;;;;;5037155;28;20078;-68
2022/11/24 00:47:11;;;;;;;10.43;6.67;;;;;;;;;;5053581;28;20044;-67
2022/11/24 00:49:36;;;;;;;13.13;6.67;;;;;;;;;;5053922;28;20131;-67
2022/11/24 00:52:02;;;;;;;10.73;6.20;;;;;;;;;;5070229;28;20073;-67
2022/11/24 00:54:27;;;;;;;10.33;6.73;;;;;;;;;;5036806;28;20048;-66
2022/11/24 00:56:53;;;;;;;12.73;6.43;;;;;;;;;;5036805;28;20024;-67
2022/11/24 00:59:18;;;;;;;10.93;6.97;;;;;;;;;;5038397;28;20048;-66
2022/11/24 01:01:44;;;;;;;13.53;6.70;;;;;;;;;;5038817;28;20047;-66
2022/11/24 01:04:10;;;;;;;10.30;6.10;;;;;;;;;;5038895;28;20090;-68
2022/11/24 01:06:35;;;;;;;14.43;6.73;;;;;;;;;;5038977;28;20382;-66
2022/11/24 01:09:01;;;;;;;10.70;6.37;;;;;;;;;;5038789;28;20044;-66
2022/11/24 01:11:27;;;;;;;12.60;7.07;;;;;;;;;;5038679;28;20039;-66
2022/11/24 01:13:54;;;;;;;14.77;7.50;;;;;;;;;;5038796;28;20047;-66
2022/11/24 01:16:24;;;;;;;12.83;6.60;;;;;;;;;;5038557;28;20246;-67
2022/11/24 01:18:50;;;;;;;12.60;6.90;;;;;;;;;;5055260;28;20032;-67
2022/11/24 01:21:16;;;;;;;13.50;6.80;;;;;;;;;;5071951;28;20043;-67
2022/11/24 01:23:42;;;;;;;15.10;7.50;;;;;;;;;;5055114;28;20042;-69
2022/11/24 01:26:08;;;;;;;12.43;7.13;;;;;;;;;;5038729;28;20043;-68
2022/11/24 01:28:34;;;;;;;12.37;7.10;;;;;;;;;;5055157;28;20075;-67
2022/11/24 01:31:00;;;;;;;13.93;7.70;;;;;;;;;;5055038;28;20063;-68
2022/11/24 01:33:26;;;;;;;13.27;8.00;;;;;;;;;;5038238;28;20055;-67
2022/11/24 01:35:52;;;;;;;12.13;7.47;;;;;;;;;;5055018;28;20042;-67
2022/11/24 01:38:17;;;;;;;14.00;7.10;;;;;;;;;;5038189;28;20131;-66
2022/11/24 01:40:43;;;;;;;13.97;8.00;;;;;;;;;;5054712;28;20028;-67
2022/11/24 01:43:16;;;;;;;17.57;8.43;;;;;;;;;;5055440;28;20048;-67
2022/11/24 01:45:42;;;;;;;15.73;8.57;;;;;;;;;;5072367;28;20036;-70
2022/11/24 01:48:27;;;;;;;13.97;8.70;;;;;;;;;;5054918;28;20041;-67
2022/11/24 01:51:06;;;;;;;13.03;8.63;;;;;;;;;;5053132;28;20037;-67
2022/11/24 01:53:31;;;;;;;15.63;9.43;;;;;;;;;;5071297;28;20055;-67
2022/11/24 01:55:57;;;;;;;15.50;9.47;;;;;;;;;;5038071;28;20036;-67
2022/11/24 01:58:25;;;;;;;17.20;9.50;;;;;;;;;;5041055;28;20054;-67
2022/11/24 02:00:50;;;;;;;16.57;9.37;;;;;;;;;;5041090;28;20417;-67
2022/11/24 02:03:19;;;;;;;14.57;9.50;;;;;;;;;;5092324;28;20039;-67
2022/11/24 02:06:20;;;;;;;17.27;9.70;;;;;;;;;;5074631;28;20512;-69
2022/11/24 02:09:05;;;;;;;15.73;9.93;;;;;;;;;;4961768;28;20488;-67
2022/11/24 02:11:35;;;;;;;16.00;8.63;;;;;;;;;;5035439;28;20097;-67
2022/11/24 02:14:03;;;;;;;18.77;8.60;;;;;;;;;;5041109;28;20048;-67
2022/11/24 02:16:28;;;;;;;16.33;8.90;;;;;;;;;;5041127;28;20127;-66
2022/11/24 02:18:54;;;;;;;16.47;9.23;;;;;;;;;;5040820;28;20135;-67
2022/11/24 02:21:20;;;;;;;15.23;9.40;;;;;;;;;;5041064;28;20039;-67
2022/11/24 02:23:45;;;;;;;14.67;9.57;;;;;;;;;;5057564;28;20512;-67
2022/11/24 02:26:17;;;;;;;14.90;9.53;;;;;;;;;;5057903;28;20078;-67
2022/11/24 02:28:43;;;;;;;16.10;10.10;;;;;;;;;;5041397;28;20481;-67
2022/11/24 02:31:09;;;;;;;18.70;9.93;;;;;;;;;;5041035;28;20032;-68
2022/11/24 02:33:35;;;;;;;16.30;9.00;;;;;;;;;;5040876;28;20071;-68
2022/11/24 02:36:01;;;;;;;17.37;9.80;;;;;;;;;;5057385;28;20123;-67
2022/11/24 02:38:27;;;;;;;15.70;8.87;;;;;;;;;;5040862;28;20131;-67
2022/11/24 02:40:53;;;;;;;13.87;8.43;;;;;;;;;;5040782;28;20474;-69
2022/11/24 02:43:21;;;;;;;14.03;7.97;;;;;;;;;;5074087;28;20126;-67
2022/11/24 02:45:46;;;;;;;17.53;8.10;;;;;;;;;;5057599;28;20028;-67
2022/11/24 02:48:13;;;;;;;14.07;8.40;;;;;;;;;;5041078;28;20565;-67
2022/11/24 02:50:38;;;;;;;14.83;7.23;;;;;;;;;;5040766;28;20040;-67
2022/11/24 02:53:04;;;;;;;14.47;7.90;;;;;;;;;;5040596;28;20044;-67
2022/11/24 02:55:29;;;;;;;15.43;8.53;;;;;;;;;;5040658;28;20032;-67
2022/11/24 02:57:55;;;;;;;18.17;8.30;;;;;;;;;;5040712;28;20438;-67
2022/11/24 03:00:21;;;;;;;15.60;8.10;;;;;;;;;;5040515;28;20397;-67
2022/11/24 03:02:46;;;;;;;13.93;7.67;;;;;;;;;;5058879;28;20032;-69
2022/11/24 03:05:12;;;;;;;13.53;7.33;;;;;;;;;;5061306;28;20047;-67
2022/11/24 03:07:37;;;;;;;15.40;7.80;;;;;;;;;;5077642;28;20036;-67
2022/11/24 03:10:03;;;;;;;13.13;7.77;;;;;;;;;;5044192;28;20369;-67
2022/11/24 03:12:29;;;;;;;13.60;7.93;;;;;;;;;;5077712;28;20036;-67
2022/11/24 03:14:55;;;;;;;12.43;7.87;;;;;;;;;;5060976;28;20054;-67
2022/11/24 03:17:20;;;;;;;15.20;7.87;;;;;;;;;;5077459;28;20036;-68
2022/11/24 03:19:46;;;;;;;12.47;6.97;;;;;;;;;;5077611;28;20131;-67
2022/11/24 03:22:12;;;;;;;14.83;7.63;;;;;;;;;;5044033;28;20031;-68
2022/11/24 03:24:37;;;;;;;17.73;9.07;;;;;;;;;;5060271;28;20040;-69
2022/11/24 03:27:03;;;;;;;13.37;7.73;;;;;;;;;;5075498;28;20088;-68
2022/11/24 03:29:29;;;;;;;14.73;8.07;;;;;;;;;;5042819;28;20046;-67
2022/11/24 03:31:54;;;;;;;16.57;8.80;;;;;;;;;;5060369;28;20057;-68
2022/11/24 03:34:20;;;;;;;15.50;8.40;;;;;;;;;;5043541;28;20134;-68
2022/11/24 03:36:45;;;;;;;16.83;9.00;;;;;;;;;;5043710;28;20032;-67
2022/11/24 03:39:11;;;;;;;19.70;9.70;;;;;;;;;;5043537;28;20185;-67
2022/11/24 03:41:36;;;;;;;17.60;9.53;;;;;;;;;;5043489;28;20032;-67
2022/11/24 03:44:02;;;;;;;17.10;9.43;;;;;;;;;;5043356;28;20104;-68
2022/11/24 03:46:28;;;;;;;27.13;10.37;;;;;;;;;;5059923;28;20123;-67
2022/11/24 03:48:53;;;;;;;19.33;10.37;;;;;;;;;;5043582;28;20028;-68
2022/11/24 03:51:19;;;;;;;25.07;11.57;;;;;;;;;;5043542;28;20523;-69
2022/11/24 03:53:45;;;;;;;18.93;10.27;;;;;;;;;;5043337;28;20044;-68
2022/11/24 03:56:10;;;;;;;16.30;9.70;;;;;;;;;;5043298;28;20040;-67
2022/11/24 03:58:36;;;;;;;19.90;9.40;;;;;;;;;;5039761;28;20478;-67
2022/11/24 04:01:02;;;;;;;19.53;8.87;;;;;;;;;;5056360;28;20035;-69
2022/11/24 04:03:28;;;;;;;18.30;9.13;;;;;;;;;;5039763;28;20036;-66
2022/11/24 04:05:53;;;;;;;17.27;8.43;;;;;;;;;;5056132;28;20024;-67
2022/11/24 04:08:19;;;;;;;17.90;9.13;;;;;;;;;;5040133;28;20524;-65
2022/11/24 04:10:47;;;;;;;17.60;9.57;;;;;;;;;;5039641;28;20037;-65
2022/11/24 04:13:14;;;;;;;18.27;8.90;;;;;;;;;;5073514;28;20375;-65
2022/11/24 04:15:40;;;;;;;15.77;8.53;;;;;;;;;;5055428;28;20545;-66
2022/11/24 04:18:07;;;;;;;17.33;8.63;;;;;;;;;;5056273;28;20051;-65
2022/11/24 04:20:33;;;;;;;14.73;7.57;;;;;;;;;;5072843;28;20093;-65
2022/11/24 04:22:58;;;;;;;19.60;9.33;;;;;;;;;;5039373;28;20412;-66
2022/11/24 04:25:24;;;;;;;17.40;8.90;;;;;;;;;;5055835;28;20067;-66
2022/11/24 04:27:51;;;;;;;18.80;8.80;;;;;;;;;;5056116;28;20449;-65
2022/11/24 04:30:18;;;;;;;14.47;7.73;;;;;;;;;;5056223;28;20123;-66
2022/11/24 04:32:43;;;;;;;18.10;10.03;;;;;;;;;;5039178;28;20032;-65
2022/11/24 04:35:09;;;;;;;17.53;9.70;;;;;;;;;;5038985;28;20081;-66
2022/11/24 04:37:35;;;;;;;19.83;10.00;;;;;;;;;;5055912;28;20045;-66
2022/11/24 04:40:01;;;;;;;17.80;9.00;;;;;;;;;;5039096;28;20041;-65
2022/11/24 04:42:26;;;;;;;15.37;8.57;;;;;;;;;;5039242;28;20032;-66
2022/11/24 04:44:52;;;;;;;17.07;8.70;;;;;;;;;;5055844;28;20047;-68
2022/11/24 04:47:21;;;;;;;16.97;8.93;;;;;;;;;;5056098;28;20429;-66
2022/11/24 04:49:47;;;;;;;15.37;8.40;;;;;;;;;;5055874;28;20097;-65
2022/11/24 04:52:13;;;;;;;16.63;8.80;;;;;;;;;;5073183;28;20055;-65
2022/11/24 04:54:39;;;;;;;15.93;9.10;;;;;;;;;;5038608;28;20483;-66
2022/11/24 04:57:04;;;;;;;16.17;9.10;;;;;;;;;;5041313;28;20032;-66
2022/11/24 04:59:30;;;;;;;16.23;8.83;;;;;;;;;;5094184;28;20455;-66
2022/11/24 05:01:55;;;;;;;18.63;8.93;;;;;;;;;;5065270;28;20035;-66
2022/11/24 05:04:21;;;;;;;18.57;9.50;;;;;;;;;;5058808;28;20501;-67
2022/11/24 05:06:46;;;;;;;21.60;9.43;;;;;;;;;;5050956;28;20046;-68
2022/11/24 05:09:13;;;;;;;19.03;9.57;;;;;;;;;;5048555;28;20122;-65
2022/11/24 05:11:39;;;;;;;14.90;8.37;;;;;;;;;;5083396;28;20089;-65
2022/11/24 05:14:04;;;;;;;21.10;9.60;;;;;;;;;;5050868;28;20051;-66
2022/11/24 05:16:30;;;;;;;16.67;9.50;;;;;;;;;;5067772;28;20031;-66
2022/11/24 05:18:55;;;;;;;20.07;8.97;;;;;;;;;;5049517;28;20028;-66
2022/11/24 05:21:21;;;;;;;15.80;8.80;;;;;;;;;;5068171;28;20028;-66
2022/11/24 05:23:46;;;;;;;18.87;8.97;;;;;;;;;;5067256;28;20416;-67
2022/11/24 05:26:12;;;;;;;17.50;9.20;;;;;;;;;;5048918;28;20355;-66
2022/11/24 05:28:37;;;;;;;18.27;9.73;;;;;;;;;;5051509;28;20122;-66
2022/11/24 05:31:03;;;;;;;19.00;8.90;;;;;;;;;;5049860;28;20442;-66
2022/11/24 05:33:32;;;;;;;20.47;10.10;;;;;;;;;;5049868;28;20386;-66
2022/11/24 05:36:01;;;;;;;16.53;9.40;;;;;;;;;;5078437;28;20036;-66
2022/11/24 05:38:28;;;;;;;16.60;9.40;;;;;;;;;;5082799;28;20086;-69
2022/11/24 05:40:53;;;;;;;18.80;9.30;;;;;;;;;;5049163;28;20080;-66
2022/11/24 05:43:19;;;;;;;18.87;9.83;;;;;;;;;;5067340;28;20029;-66
2022/11/24 05:45:45;;;;;;;17.00;9.40;;;;;;;;;;5050593;28;20458;-66
2022/11/24 05:48:12;;;;;;;17.83;10.20;;;;;;;;;;5048953;28;20036;-66
2022/11/24 05:50:38;;;;;;;21.67;9.27;;;;;;;;;;5067218;28;20450;-65
2022/11/24 05:53:05;;;;;;;24.10;11.10;;;;;;;;;;5050314;28;20040;-66
2022/11/24 05:55:30;;;;;;;20.60;10.73;;;;;;;;;;5048859;28;20101;-66
2022/11/24 05:57:57;;;;;;;23.33;10.93;;;;;;;;;;5061020;28;20443;-65
2022/11/24 06:00:23;;;;;;;20.23;10.80;;;;;;;;;;5065034;28;20059;-67
2022/11/24 06:02:48;;;;;;;18.33;10.17;;;;;;;;;;5047440;28;20032;-65
2022/11/24 06:05:14;;;;;;;20.93;11.07;;;;;;;;;;5076710;28;20092;-67
2022/11/24 06:07:39;;;;;;;20.70;11.33;;;;;;;;;;5079286;28;20417;-67
2022/11/24 06:10:05;;;;;;;21.27;10.77;;;;;;;;;;5064811;28;20047;-67
2022/11/24 06:12:31;;;;;;;21.60;11.53;;;;;;;;;;5047552;28;20085;-66
2022/11/24 06:14:56;;;;;;;20.23;10.77;;;;;;;;;;5061311;28;20147;-67
2022/11/24 06:17:22;;;;;;;20.23;10.93;;;;;;;;;;5045518;28;20028;-67
2022/11/24 06:19:50;;;;;;;20.13;11.27;;;;;;;;;;5046514;28;20444;-66
2022/11/24 06:22:17;;;;;;;21.50;11.43;;;;;;;;;;5078817;28;20039;-66
2022/11/24 06:24:43;;;;;;;20.93;11.80;;;;;;;;;;5078152;28;20036;-66
2022/11/24 06:27:09;;;;;;;24.90;11.20;;;;;;;;;;5047174;28;20105;-66
2022/11/24 06:29:34;;;;;;;22.77;11.20;;;;;;;;;;5053174;28;20032;-66
2022/11/24 06:32:00;;;;;;;21.13;11.07;;;;;;;;;;5045441;28;20036;-66
2022/11/24 06:34:25;;;;;;;21.03;10.97;;;;;;;;;;5050503;28;20036;-66
2022/11/24 06:36:51;;;;;;;22.10;11.03;;;;;;;;;;5063588;28;20094;-65
2022/11/24 06:39:16;;;;;;;18.10;10.33;;;;;;;;;;5067440;28;20032;-66
2022/11/24 06:41:42;;;;;;;19.33;10.40;;;;;;;;;;5052875;28;20537;-66
2022/11/24 06:44:07;;;;;;;20.07;10.73;;;;;;;;;;5068321;28;20024;-67
2022/11/24 06:46:33;;;;;;;19.33;9.60;;;;;;;;;;5051072;28;20024;-65
2022/11/24 06:48:59;;;;;;;18.60;10.17;;;;;;;;;;5058264;28;20028;-66
2022/11/24 06:51:25;;;;;;;20.53;9.87;;;;;;;;;;5084770;28;20126;-66
2022/11/24 06:53:51;;;;;;;18.90;9.70;;;;;;;;;;5051153;28;20389;-66
2022/11/24 06:56:17;;;;;;;20.97;10.20;;;;;;;;;;5066170;28;20032;-66
2022/11/24 06:58:44;;;;;;;19.03;9.90;;;;;;;;;;5048829;28;20059;-65
2022/11/24 07:01:14;;;;;;;20.13;10.53;;;;;;;;;;5078784;28;20032;-66
2022/11/24 07:03:40;;;;;;;16.90;10.68;;;;;;;;;;5081871;28;20047;-66
2022/11/24 07:06:05;;;;;;;22.13;10.87;;;;;;;;;;5066736;28;20385;-66
2022/11/24 07:08:31;;;;;;;18.73;11.10;;;;;;;;;;5072092;28;20471;-65
2022/11/24 07:11:02;;;;;;;18.57;10.63;;;;;;;;;;5056519;28;20028;-65
2022/11/24 07:13:27;;;;;;;21.23;11.13;;;;;;;;;;5057378;28;20044;-65
2022/11/24 07:15:53;;;;;;;21.80;12.13;;;;;;;;;;5057218;28;20032;-66
2022/11/24 07:18:18;;;;;;;21.53;11.53;;;;;;;;;;5074288;28;20051;-65
2022/11/24 07:20:44;;;;;;;21.50;11.73;;;;;;;;;;5041015;28;20036;-65
2022/11/24 07:23:10;;;;;;;21.10;11.90;;;;;;;;;;5047945;28;20032;-65
2022/11/24 07:25:35;;;;;;;23.80;12.87;;;;;;;;;;5075178;28;20411;-65
2022/11/24 07:28:01;;;;;;;26.70;13.60;;;;;;;;;;5058554;28;20078;-69
2022/11/24 07:30:27;;;;;;;24.63;13.77;;;;;;;;;;5058359;28;20032;-67
2022/11/24 07:33:02;;;;;;;28.47;14.10;;;;;;;;;;5058108;28;20131;-70
2022/11/24 07:35:30;;;;;;;24.10;12.30;;;;;;;;;;5058799;28;20040;-69
2022/11/24 07:37:56;;;;;;;21.13;12.10;;;;;;;;;;5093383;28;20119;-70
2022/11/24 07:40:22;;;;;;;21.33;11.27;;;;;;;;;;5063462;28;20028;-69
2022/11/24 07:42:47;;;;;;;23.00;11.90;;;;;;;;;;5064898;28;20032;-69
2022/11/24 07:45:13;;;;;;;21.03;11.57;;;;;;;;;;5044456;28;20040;-70
2022/11/24 07:47:39;;;;;;;26.10;12.13;;;;;;;;;;5038443;28;20123;-70
2022/11/24 07:50:05;;;;;;;25.73;13.07;;;;;;;;;;5069532;28;20049;-72
2022/11/24 07:52:30;;;;;;;20.77;11.67;;;;;;;;;;5072709;28;20105;-70
2022/11/24 07:54:56;;;;;;;26.70;13.20;;;;;;;;;;5073241;28;20044;-71
2022/11/24 07:57:22;;;;;;;22.67;12.80;;;;;;;;;;5078024;28;20093;-70
2022/11/24 07:59:48;;;;;;;24.10;12.57;;;;;;;;;;5054497;28;20072;-71
2022/11/24 08:02:14;;;;;;;25.03;11.90;;;;;;;;;;5074935;28;20519;-69
2022/11/24 08:04:40;;;;;;;24.73;12.40;;;;;;;;;;5038053;28;20075;-71
2022/11/24 08:07:05;;;;;;;22.17;10.93;;;;;;;;;;5038245;28;20101;-70
2022/11/24 08:09:31;;;;;;;18.27;10.33;;;;;;;;;;5049403;28;20024;-71
2022/11/24 08:11:56;;;;;;;24.00;10.80;;;;;;;;;;5064086;28;20086;-71
2022/11/24 08:14:22;;;;;;;32.93;13.83;;;;;;;;;;5047060;28;20478;-72
2022/11/24 08:16:48;;;;;;;28.77;12.40;;;;;;;;;;5080499;28;20053;-72
2022/11/24 08:19:14;;;;;;;26.47;11.87;;;;;;;;;;5062032;28;20551;-70
2022/11/24 08:21:39;;;;;;;26.67;12.00;;;;;;;;;;5045032;28;20119;-71
2022/11/24 08:24:06;;;;;;;25.90;12.37;;;;;;;;;;5042281;28;20028;-73
2022/11/24 08:26:31;;;;;;;27.73;11.80;;;;;;;;;;5079500;28;20039;-73
2022/11/24 08:28:57;;;;;;;22.87;11.07;;;;;;;;;;5044270;28;20637;-71
2022/11/24 08:31:25;;;;;;;28.67;11.60;;;;;;;;;;5044848;28;20043;-71
2022/11/24 08:33:53;;;;;;;22.03;9.97;;;;;;;;;;5081430;28;20409;-72
2022/11/24 08:36:19;;;;;;;21.27;10.73;;;;;;;;;;5071372;28;20474;-72
2022/11/24 08:38:45;;;;;;;26.73;11.40;;;;;;;;;;5059832;28;20148;-71
2022/11/24 08:41:12;;;;;;;20.33;9.87;;;;;;;;;;5038257;28;20134;-71
2022/11/24 08:43:38;;;;;;;26.13;10.83;;;;;;;;;;5037880;28;20352;-71
2022/11/24 08:46:06;;;;;;;20.87;9.77;;;;;;;;;;5040806;28;20096;-71
2022/11/24 08:48:31;;;;;;;17.03;9.03;;;;;;;;;;5058082;28;20040;-71
2022/11/24 08:50:57;;;;;;;19.93;10.40;;;;;;;;;;5056928;28;20466;-71
2022/11/24 08:53:23;;;;;;;19.93;10.77;;;;;;;;;;5041284;28;20048;-72
2022/11/24 08:55:49;;;;;;;24.67;11.63;;;;;;;;;;5070553;28;20394;-71
2022/11/24 08:58:15;;;;;;;20.57;10.63;;;;;;;;;;5072532;28;20143;-67
2022/11/24 09:00:42;;;;;;;22.93;10.13;;;;;;;;;;5057707;28;20036;-68
2022/11/24 09:03:09;;;;;;;18.60;9.90;;;;;;;;;;5057828;28;20089;-68
2022/11/24 09:05:35;;;;;;;17.53;9.50;;;;;;;;;;5074013;28;20123;-68
2022/11/24 09:08:02;;;;;;;20.50;10.23;;;;;;;;;;5074271;28;20079;-70
2022/11/24 09:10:27;;;;;;;20.43;10.53;;;;;;;;;;5055313;28;20650;-68
2022/11/24 09:12:53;;;;;;;17.93;8.97;;;;;;;;;;5071774;28;20051;-67
2022/11/24 09:15:19;;;;;;;22.43;9.93;;;;;;;;;;5039672;28;20119;-69
2022/11/24 09:17:45;;;;;;;19.37;9.90;;;;;;;;;;5073341;28;20797;-68
2022/11/24 09:20:11;;;;;;;19.63;10.00;;;;;;;;;;5073932;28;20036;-67
2022/11/24 09:22:37;;;;;;;19.80;9.93;;;;;;;;;;5057067;28;20043;-65
2022/11/24 09:25:04;;;;;;;15.83;9.07;;;;;;;;;;5040586;28;20070;-64
2022/11/24 09:27:30;;;;;;;19.50;10.13;;;;;;;;;;5073503;28;20146;-63
2022/11/24 09:29:55;;;;;;;19.80;10.20;;;;;;;;;;5057030;28;20122;-65
2022/11/24 09:32:21;;;;;;;18.43;10.27;;;;;;;;;;5041015;28;20036;-64
2022/11/24 09:34:48;;;;;;;21.77;10.40;;;;;;;;;;5056903;28;20062;-65
2022/11/24 09:37:14;;;;;;;21.53;10.80;;;;;;;;;;5056639;28;20036;-63
2022/11/24 09:39:40;;;;;;;25.70;11.37;;;;;;;;;;5056688;28;20680;-64
2022/11/24 09:42:11;;;;;;;24.00;11.33;;;;;;;;;;5056955;28;20032;-64
2022/11/24 09:44:44;;;;;;;23.93;11.07;;;;;;;;;;5056724;28;20036;-64
2022/11/24 09:47:31;;;;;;;20.60;10.23;;;;;;;;;;5091695;28;20055;-64
2022/11/24 09:50:04;;;;;;;21.37;10.60;;;;;;;;;;5056658;28;20031;-65
2022/11/24 09:52:33;;;;;;;28.10;11.50;;;;;;;;;;5023816;28;20028;-63
2022/11/24 09:55:01;;;;;;;21.90;10.03;;;;;;;;;;5056752;28;20051;-64
2022/11/24 09:57:30;;;;;;;27.10;11.10;;;;;;;;;;5091190;28;20124;-63
2022/11/24 10:00:00;;;;;;;20.27;11.07;;;;;;;;;;5056446;28;20077;-64
2022/11/24 10:02:26;;;;;;;23.33;11.18;;;;;;;;;;5073450;28;20089;-64
2022/11/24 10:04:53;;;;;;;21.33;11.37;;;;;;;;;;5073475;28;20386;-63
2022/11/24 10:07:27;;;;;;;23.70;12.00;;;;;;;;;;5073655;28;20040;-64
2022/11/24 10:10:05;;;;;;;23.73;11.93;;;;;;;;;;5073156;28;20100;-65
2022/11/24 10:12:50;;;;;;;21.07;11.03;;;;;;;;;;5054901;28;20043;-65
2022/11/24 10:15:26;;;;;;;20.53;10.87;;;;;;;;;;5056377;28;20359;-65
2022/11/24 10:18:07;;;;;;;21.27;10.70;;;;;;;;;;5090831;28;20043;-64
2022/11/24 10:20:41;;;;;;;24.53;12.10;;;;;;;;;;5073092;28;20047;-64
2022/11/24 10:23:10;;;;;;;22.23;10.17;;;;;;;;;;5058445;28;20062;-65
2022/11/24 10:25:38;;;;;;;22.97;11.57;;;;;;;;;;5046646;28;20043;-65
2022/11/24 10:28:08;;;;;;;22.53;11.27;;;;;;;;;;5066123;28;20035;-65
2022/11/24 10:30:34;;;;;;;23.10;11.50;;;;;;;;;;5098388;28;20036;-63
2022/11/24 10:33:01;;;;;;;22.27;10.90;;;;;;;;;;5065820;28;20691;-65
2022/11/24 10:35:30;;;;;;;22.17;10.97;;;;;;;;;;5058692;28;20551;-63
2022/11/24 10:38:24;;;;;;;23.43;11.10;;;;;;;;;;5072611;28;20036;-64
2022/11/24 10:40:57;;;;;;;24.10;10.70;;;;;;;;;;5074324;28;20035;-63
2022/11/24 10:43:27;;;;;;;21.40;11.10;;;;;;;;;;5049753;28;20089;-65
2022/11/24 10:45:54;;;;;;;22.20;10.90;;;;;;;;;;5081098;28;20181;-62
2022/11/24 10:48:28;;;;;;;26.93;11.70;;;;;;;;;;5064793;28;20110;-63
2022/11/24 10:51:00;;;;;;;24.10;11.80;;;;;;;;;;5081569;28;20126;-63
2022/11/24 10:53:26;;;;;;;24.50;12.23;;;;;;;;;;5063209;28;20040;-65
2022/11/24 10:55:56;;;;;;;26.40;11.87;;;;;;;;;;5074054;28;20048;-64
2022/11/24 10:58:24;;;;;;;21.90;11.30;;;;;;;;;;5044578;28;20056;-65
2022/11/24 11:00:53;;;;;;;22.73;11.02;;;;;;;;;;5076736;28;20039;-66
2022/11/24 11:03:20;;;;;;;20.67;10.50;;;;;;;;;;5049023;28;20100;-64
2022/11/24 11:05:56;;;;;;;22.00;10.67;;;;;;;;;;5048657;28;20028;-64
2022/11/24 11:08:24;;;;;;;17.73;9.67;;;;;;;;;;5093277;28;20504;-64
2022/11/24 11:11:06;;;;;;;21.57;10.33;;;;;;;;;;5092768;28;20454;-64
2022/11/24 11:13:31;;;;;;;22.47;10.77;;;;;;;;;;5075151;28;20606;-63
2022/11/24 11:15:57;;;;;;;19.70;10.33;;;;;;;;;;5092788;28;20072;-64
2022/11/24 11:18:29;;;;;;;24.77;11.60;;;;;;;;;;5054851;28;20493;-65
2022/11/24 11:20:56;;;;;;;25.23;11.67;;;;;;;;;;5096353;28;20116;-65
2022/11/24 11:23:27;;;;;;;23.90;11.63;;;;;;;;;;5050525;28;20035;-65
2022/11/24 11:26:12;;;;;;;22.00;11.45;;;;;;;;;;5052554;28;20080;-65
2022/11/24 11:28:37;;;;;;;23.40;11.53;;;;;;;;;;5067300;28;20036;-64
2022/11/24 11:31:04;;;;;;;28.10;11.80;;;;;;;;;;5064373;28;20540;-65
2022/11/24 11:33:31;;;;;;;23.60;11.63;;;;;;;;;;5067741;28;20493;-62
2022/11/24 11:35:57;;;;;;;25.67;11.17;;;;;;;;;;5070282;28;20031;-64
2022/11/24 11:38:32;;;;;;;24.50;11.50;;;;;;;;;;5051440;28;20032;-64
2022/11/24 11:41:00;;;;;;;22.83;12.10;;;;;;;;;;5051181;28;20065;-64
2022/11/24 11:43:28;;;;;;;21.57;10.37;;;;;;;;;;5050922;28;20039;-65
2022/11/24 11:46:06;;;;;;;22.17;11.50;;;;;;;;;;5053266;28;20062;-63
2022/11/24 11:48:34;;;;;;;22.87;11.23;;;;;;;;;;5066951;28;20116;-64
2022/11/24 11:51:04;;;;;;;24.70;11.93;;;;;;;;;;5067969;28;20027;-64
2022/11/24 11:53:30;;;;;;;24.73;12.05;;;;;;;;;;5084723;28;20047;-64
2022/11/24 11:55:55;;;;;;;26.83;11.47;;;;;;;;;;5052081;28;20028;-64
2022/11/24 11:58:21;;;;;;;23.90;11.87;;;;;;;;;;5051271;28;20373;-65
2022/11/24 12:00:54;;;;;;;28.73;12.80;;;;;;;;;;5091820;28;20081;-65
2022/11/24 12:03:20;;;;;;;28.70;13.00;;;;;;;;;;5083486;28;20111;-65
2022/11/24 12:05:49;;;;;;;25.23;12.23;;;;;;;;;;5051222;28;20505;-63
2022/11/24 12:08:29;;;;;;;26.30;12.57;;;;;;;;;;5051505;28;20442;-65
2022/11/24 12:10:55;;;;;;;27.60;12.38;;;;;;;;;;5084126;28;20363;-65
2022/11/24 12:13:33;;;;;;;26.23;13.13;;;;;;;;;;5067890;28;20686;-65
2022/11/24 12:16:08;;;;;;;21.40;10.83;;;;;;;;;;5068556;28;20058;-65
2022/11/24 12:18:33;;;;;;;24.07;11.37;;;;;;;;;;5084054;28;20074;-65
2022/11/24 12:21:05;;;;;;;24.00;12.70;;;;;;;;;;5049777;28;20071;-65
2022/11/24 12:23:34;;;;;;;24.53;12.53;;;;;;;;;;5083649;28;20093;-65
2022/11/24 12:26:05;;;;;;;28.33;12.17;;;;;;;;;;5049584;28;20085;-65
2022/11/24 12:28:34;;;;;;;21.83;11.10;;;;;;;;;;5066736;28;20042;-65
2022/11/24 12:31:05;;;;;;;25.27;11.37;;;;;;;;;;5066491;28;20032;-65
2022/11/24 12:33:30;;;;;;;;;;;;;;;;;;5069071;28;20134;-65
2022/11/24 12:36:03;;;;;;;24.10;11.33;;;;;;;;;;5065904;28;20003;-65
2022/11/24 12:38:37;;;;;;;24.27;11.00;;;;;;;;;;5097461;28;20043;-65
2022/11/24 12:41:19;;;;;;;21.80;10.90;;;;;;;;;;5058436;28;20428;-64
2022/11/24 12:43:52;;;;;;;27.53;11.97;;;;;;;;;;5057873;28;20215;-65
2022/11/24 12:46:30;;;;;;;25.43;11.80;;;;;;;;;;5057952;28;20103;-62
2022/11/24 12:49:07;;;;;;;25.30;11.90;;;;;;;;;;5046300;28;20146;-65
2022/11/24 12:51:39;;;;;;;22.73;10.77;;;;;;;;;;5084042;28;20031;-65
2022/11/24 12:54:08;;;;;;;23.27;10.30;;;;;;;;;;5066216;28;20130;-65
2022/11/24 12:56:51;;;;;;;24.50;10.87;;;;;;;;;;5067563;28;20039;-65
2022/11/24 12:59:27;;;;;;;23.20;11.30;;;;;;;;;;5067267;28;20593;-65
2022/11/24 13:02:07;;;;;;;21.33;10.23;;;;;;;;;;5084245;28;20069;-65
2022/11/24 13:04:45;;;;;;;23.63;11.20;;;;;;;;;;5083992;28;20031;-64
2022/11/24 13:07:17;;;;;;;23.80;10.77;;;;;;;;;;5050753;28;20267;-65
2022/11/24 13:10:01;;;;;;;20.27;10.00;;;;;;;;;;5083206;28;20024;-64
2022/11/24 13:12:28;;;;;;;22.53;10.80;;;;;;;;;;5080300;28;20028;-65
2022/11/24 13:14:54;;;;;;;26.97;11.03;;;;;;;;;;5108269;28;20431;-67
2022/11/24 13:17:29;;;;;;;23.70;10.83;;;;;;;;;;5056690;28;20126;-65
2022/11/24 13:20:12;;;;;;;22.50;10.20;;;;;;;;;;5048983;28;20043;-66
2022/11/24 13:22:37;;;;;;;22.17;11.03;;;;;;;;;;5078505;28;20032;-65
2022/11/24 13:25:12;;;;;;;25.70;10.83;;;;;;;;;;5062200;28;20130;-65
2022/11/24 13:27:39;;;;;;;25.77;10.80;;;;;;;;;;5097083;28;20036;-65
2022/11/24 13:30:25;;;;;;;20.33;10.60;;;;;;;;;;5079257;28;20032;-64
2022/11/24 13:32:58;;;;;;;23.93;10.77;;;;;;;;;;5047102;28;20047;-65
2022/11/24 13:35:23;;;;;;;22.30;10.80;;;;;;;;;;5066042;28;20370;-65
2022/11/24 13:37:50;;;;;;;23.30;11.13;;;;;;;;;;5048012;28;20425;-65
2022/11/24 13:40:17;;;;;;;20.63;9.93;;;;;;;;;;5081828;28;20114;-65
2022/11/24 13:43:00;;;;;;;19.57;10.10;;;;;;;;;;5065918;28;20035;-66
2022/11/24 13:45:37;;;;;;;22.90;11.20;;;;;;;;;;5082902;28;20028;-66
2022/11/24 13:48:19;;;;;;;20.10;10.00;;;;;;;;;;5065340;28;20036;-65
2022/11/24 13:50:52;;;;;;;18.43;10.50;;;;;;;;;;5050101;28;20833;-64
2022/11/24 13:53:41;;;;;;;20.47;10.00;;;;;;;;;;5081765;28;20501;-60
2022/11/24 13:56:12;;;;;;;22.87;11.20;;;;;;;;;;5050075;28;20035;-62
2022/11/24 13:58:39;;;;;;;23.27;10.73;;;;;;;;;;5081460;28;20143;-65
2022/11/24 14:01:17;;;;;;;24.97;11.20;;;;;;;;;;5073294;28;20039;-65
2022/11/24 14:03:49;;;;;;;21.03;10.43;;;;;;;;;;5067199;28;20028;-65
2022/11/24 14:06:26;;;;;;;22.33;10.23;;;;;;;;;;5048058;28;20028;-65
2022/11/24 14:08:52;;;;;;;20.63;10.60;;;;;;;;;;5047589;28;20180;-65
2022/11/24 14:11:19;;;;;;;17.90;9.73;;;;;;;;;;5049369;28;20114;-64
2022/11/24 14:13:45;;;;;;;23.13;10.33;;;;;;;;;;5099570;28;20545;-65
2022/11/24 14:16:11;;;;;;;20.87;9.43;;;;;;;;;;5081051;28;20108;-65
2022/11/24 14:18:41;;;;;;;20.33;9.80;;;;;;;;;;5063629;28;20382;-65
2022/11/24 14:21:19;;;;;;;17.97;9.50;;;;;;;;;;5064304;28;20130;-65
2022/11/24 14:23:49;;;;;;;20.20;10.43;;;;;;;;;;5061282;28;20887;-65
2022/11/24 14:26:17;;;;;;;20.60;10.07;;;;;;;;;;5081915;28;20131;-65
2022/11/24 14:28:44;;;;;;;21.57;11.17;;;;;;;;;;5050065;28;20034;-66